Time;durP1;ratioP1;P1;durP2;ratioP2;P2;SDS_P1;SDS_P2;PMS_P1;PMS_P2;Temp;Humidity;BMP_temperature;BMP_pressure;BME280_temperature;BME280_humidity;BME280_pressure;Samples;Min_cycle;Max_cycle;Signal;HPM_P1;HPM_P2
2021/01/21 00:01:27;;;;;;;2.60;1.20;;;5.30;67.00;;;;;;5055271;28;20027;-74
2021/01/21 00:03:52;;;;;;;5.25;1.42;;;5.20;66.70;;;;;;5038065;28;20020;-74
2021/01/21 00:06:18;;;;;;;2.40;1.00;;;5.00;66.50;;;;;;5054857;28;20097;-74
2021/01/21 00:08:44;;;;;;;3.13;1.45;;;4.80;66.80;;;;;;5054987;28;20021;-74
2021/01/21 00:11:09;;;;;;;3.88;2.13;;;4.70;67.10;;;;;;5055008;28;20086;-74
2021/01/21 00:13:35;;;;;;;3.78;1.70;;;4.60;67.80;;;;;;5054819;28;20023;-74
2021/01/21 00:16:01;;;;;;;1.77;1.05;;;4.40;68.20;;;;;;5072585;28;20066;-75
2021/01/21 00:18:27;;;;;;;1.52;1.05;;;4.40;68.60;;;;;;5072502;28;20029;-74
2021/01/21 00:20:53;;;;;;;1.30;0.90;;;4.50;68.10;;;;;;5038053;28;20020;-74
2021/01/21 00:23:19;;;;;;;1.67;1.15;;;4.60;67.70;;;;;;5038070;28;20024;-74
2021/01/21 00:25:45;;;;;;;2.17;1.20;;;4.70;66.90;;;;;;5072624;28;20032;-74
2021/01/21 00:28:10;;;;;;;1.08;0.80;;;4.70;67.40;;;;;;5038702;28;20464;-74
2021/01/21 00:30:36;;;;;;;2.88;1.30;;;4.70;67.30;;;;;;5055142;28;20391;-74
2021/01/21 00:33:02;;;;;;;1.77;1.10;;;4.70;67.90;;;;;;5072930;28;20032;-74
2021/01/21 00:35:28;;;;;;;3.72;1.60;;;4.70;68.40;;;;;;5072214;28;20024;-74
2021/01/21 00:37:54;;;;;;;6.35;2.10;;;4.70;67.60;;;;;;5072466;28;20495;-74
2021/01/21 00:40:19;;;;;;;7.60;2.17;;;4.50;68.40;;;;;;5072083;28;20036;-74
2021/01/21 00:42:45;;;;;;;5.85;2.60;;;4.60;69.20;;;;;;5072212;28;20028;-73
2021/01/21 00:45:11;;;;;;;3.67;1.80;;;4.60;68.90;;;;;;5071913;28;20388;-74
2021/01/21 00:47:37;;;;;;;2.85;1.27;;;4.70;69.40;;;;;;5054165;28;20111;-73
2021/01/21 00:50:03;;;;;;;1.80;1.15;;;4.70;67.00;;;;;;5071846;28;20031;-74
2021/01/21 00:52:29;;;;;;;3.13;1.20;;;4.60;67.10;;;;;;5054172;28;20408;-74
2021/01/21 00:54:55;;;;;;;4.35;1.10;;;4.60;67.60;;;;;;5071629;28;20025;-74
2021/01/21 00:57:20;;;;;;;1.20;0.95;;;4.60;67.60;;;;;;5054038;28;20035;-74
2021/01/21 00:59:46;;;;;;;3.55;1.38;;;4.50;67.90;;;;;;5053628;28;20024;-74
2021/01/21 01:02:12;;;;;;;3.17;1.00;;;4.40;68.00;;;;;;5072028;28;20111;-73
2021/01/21 01:04:37;;;;;;;1.73;0.98;;;4.00;66.90;;;;;;5053725;28;20032;-74
2021/01/21 01:07:04;;;;;;;1.77;0.95;;;3.60;68.30;;;;;;5071395;28;20104;-74
2021/01/21 01:09:30;;;;;;;1.48;1.00;;;3.50;70.40;;;;;;5053986;28;20029;-73
2021/01/21 01:11:56;;;;;;;1.35;0.80;;;3.40;70.10;;;;;;5071520;28;20023;-74
2021/01/21 01:14:22;;;;;;;2.05;1.38;;;3.00;70.90;;;;;;5071521;28;20024;-74
2021/01/21 01:16:47;;;;;;;1.30;1.08;;;2.80;72.50;;;;;;5071327;28;20024;-74
2021/01/21 01:19:13;;;;;;;1.30;1.10;;;2.70;73.10;;;;;;5053692;28;20035;-73
2021/01/21 01:21:40;;;;;;;1.15;1.00;;;2.60;72.60;;;;;;5071071;28;20021;-74
2021/01/21 01:24:06;;;;;;;2.25;0.98;;;2.70;72.50;;;;;;5053449;28;20502;-74
2021/01/21 01:26:32;;;;;;;1.30;0.95;;;2.80;72.30;;;;;;5070975;28;20415;-74
2021/01/21 01:28:58;;;;;;;1.85;1.23;;;3.10;72.80;;;;;;5052963;28;20017;-74
2021/01/21 01:31:26;;;;;;;0.90;0.82;;;3.40;71.90;;;;;;5071040;28;20044;-74
2021/01/21 01:33:52;;;;;;;1.27;0.80;;;3.70;70.70;;;;;;5053401;28;20028;-73
2021/01/21 01:36:18;;;;;;;1.92;0.82;;;3.70;70.10;;;;;;5070927;28;20032;-73
2021/01/21 01:38:43;;;;;;;1.40;0.65;;;3.70;70.40;;;;;;5053248;28;20028;-73
2021/01/21 01:41:09;;;;;;;1.17;0.90;;;3.80;71.50;;;;;;5071187;28;20090;-74
2021/01/21 01:43:35;;;;;;;1.65;1.05;;;3.90;71.00;;;;;;5070872;28;20099;-74
2021/01/21 01:46:03;;;;;;;1.20;0.90;;;4.00;69.80;;;;;;5053124;28;20119;-74
2021/01/21 01:48:30;;;;;;;0.77;0.77;;;3.90;69.90;;;;;;5070743;28;20035;-74
2021/01/21 01:50:58;;;;;;;3.58;0.80;;;3.90;69.40;;;;;;5071124;28;20469;-74
2021/01/21 01:53:28;;;;;;;0.73;0.73;;;3.60;68.10;;;;;;5052763;28;20020;-74
2021/01/21 01:55:54;;;;;;;1.27;0.60;;;3.40;69.80;;;;;;5070867;28;20017;-73
2021/01/21 01:58:20;;;;;;;2.20;0.70;;;3.50;70.10;;;;;;5070784;28;20032;-73
2021/01/21 02:00:49;;;;;;;4.95;0.95;;;3.80;69.80;;;;;;5070915;28;20495;-74
2021/01/21 02:03:15;;;;;;;0.95;0.70;;;4.10;69.30;;;;;;5070661;28;20039;-74
2021/01/21 02:05:41;;;;;;;0.55;0.50;;;4.40;68.80;;;;;;5070878;28;20029;-74
2021/01/21 02:08:07;;;;;;;1.10;0.82;;;4.60;68.60;;;;;;5070666;28;20038;-74
2021/01/21 02:10:33;;;;;;;1.42;0.63;;;4.70;68.80;;;;;;5071004;28;20036;-74
2021/01/21 02:13:20;;;;;;;0.85;0.75;;;4.60;68.70;;;;;;5070631;28;20055;-74
2021/01/21 02:15:59;;;;;;;0.65;0.60;;;4.80;68.80;;;;;;5070987;28;20021;-74
2021/01/21 02:18:36;;;;;;;0.80;0.65;;;5.20;66.40;;;;;;5071197;28;20468;-74
2021/01/21 02:21:27;;;;;;;0.68;0.60;;;5.50;65.20;;;;;;5071323;28;20048;-73
2021/01/21 02:24:11;;;;;;;0.65;0.60;;;5.60;64.60;;;;;;5070855;28;20016;-74
2021/01/21 02:26:38;;;;;;;2.88;0.50;;;5.70;64.10;;;;;;5070567;28;20025;-74
2021/01/21 02:29:17;;;;;;;0.70;0.70;;;5.80;63.80;;;;;;5052666;28;20017;-74
2021/01/21 02:31:59;;;;;;;4.13;1.15;;;5.90;63.40;;;;;;5070765;28;20074;-74
2021/01/21 02:34:43;;;;;;;1.23;0.70;;;5.90;63.20;;;;;;5070261;28;20442;-75
2021/01/21 02:37:18;;;;;;;0.68;0.60;;;5.90;63.20;;;;;;5070555;28;20503;-74
2021/01/21 02:39:48;;;;;;;1.05;0.80;;;5.80;66.00;;;;;;5070424;28;20360;-74
2021/01/21 02:42:14;;;;;;;0.73;0.73;;;5.80;65.90;;;;;;5056416;28;20024;-75
2021/01/21 02:44:39;;;;;;;1.85;0.70;;;5.70;66.60;;;;;;5039721;28;20025;-74
2021/01/21 02:47:05;;;;;;;2.15;1.00;;;5.70;66.60;;;;;;5074396;28;20070;-75
2021/01/21 02:49:33;;;;;;;1.98;0.98;;;5.80;66.90;;;;;;5056157;28;20025;-74
2021/01/21 02:52:28;;;;;;;0.73;0.73;;;5.80;68.20;;;;;;5056366;28;20021;-74
2021/01/21 02:54:56;;;;;;;1.17;0.80;;;5.70;69.10;;;;;;5069897;28;20043;-74
2021/01/21 02:57:31;;;;;;;1.60;1.10;;;5.70;68.20;;;;;;5074552;28;20033;-74
2021/01/21 03:00:01;;;;;;;2.83;0.98;;;5.70;69.60;;;;;;5073916;28;20107;-74
2021/01/21 03:02:29;;;;;;;1.60;1.00;;;5.60;69.70;;;;;;5074270;28;20075;-74
2021/01/21 03:04:58;;;;;;;3.25;0.77;;;5.50;69.20;;;;;;5056009;28;20028;-74
2021/01/21 03:07:25;;;;;;;1.77;0.80;;;5.30;69.60;;;;;;5073913;28;20071;-74
2021/01/21 03:09:51;;;;;;;0.90;0.75;;;5.20;69.80;;;;;;5073956;28;20372;-74
2021/01/21 03:12:18;;;;;;;0.70;0.70;;;5.20;70.50;;;;;;5073857;28;20032;-74
2021/01/21 03:14:44;;;;;;;1.90;0.80;;;5.20;70.50;;;;;;5073879;28;20021;-74
2021/01/21 03:17:10;;;;;;;0.88;0.80;;;5.10;70.60;;;;;;5073865;28;20050;-74
2021/01/21 03:19:36;;;;;;;1.05;0.90;;;4.90;70.50;;;;;;5074087;28;20107;-74
2021/01/21 03:22:02;;;;;;;2.63;1.02;;;4.80;70.40;;;;;;5055410;28;20128;-74
2021/01/21 03:24:28;;;;;;;4.25;1.08;;;4.80;70.40;;;;;;5055637;28;20032;-73
2021/01/21 03:26:53;;;;;;;1.02;0.90;;;4.70;72.50;;;;;;5073234;28;20521;-74
2021/01/21 03:29:19;;;;;;;0.70;0.70;;;4.70;72.30;;;;;;5073686;28;20032;-74
2021/01/21 03:31:45;;;;;;;2.42;0.95;;;4.80;69.50;;;;;;5073407;28;20388;-74
2021/01/21 03:34:11;;;;;;;1.67;0.73;;;4.80;69.60;;;;;;5073464;28;20430;-74
2021/01/21 03:36:36;;;;;;;2.10;0.98;;;5.00;68.50;;;;;;5073282;28;20024;-74
2021/01/21 03:39:02;;;;;;;2.00;0.60;;;5.30;67.60;;;;;;5055542;28;20029;-74
2021/01/21 03:41:28;;;;;;;0.82;0.70;;;5.40;66.50;;;;;;5073224;28;20061;-74
2021/01/21 03:43:54;;;;;;;0.55;0.55;;;5.40;66.70;;;;;;5073364;28;20029;-74
2021/01/21 03:46:19;;;;;;;0.75;0.75;;;5.50;67.10;;;;;;5073113;28;20028;-74
2021/01/21 03:48:46;;;;;;;0.47;0.47;;;5.40;66.90;;;;;;5055220;28;20021;-74
2021/01/21 03:51:12;;;;;;;0.60;0.60;;;5.40;66.20;;;;;;5072837;28;20357;-75
2021/01/21 03:53:38;;;;;;;1.10;0.70;;;5.40;67.40;;;;;;5055232;28;20038;-74
2021/01/21 03:56:04;;;;;;;0.70;0.70;;;5.30;68.00;;;;;;5055227;28;20543;-74
2021/01/21 03:58:30;;;;;;;0.52;0.52;;;5.20;67.40;;;;;;5072919;28;20052;-74
2021/01/21 04:00:55;;;;;;;3.03;0.88;;;5.30;67.70;;;;;;5073399;28;20052;-75
2021/01/21 04:03:21;;;;;;;1.95;0.70;;;5.20;67.60;;;;;;5072969;28;20025;-74
2021/01/21 04:05:47;;;;;;;2.58;0.60;;;5.30;66.60;;;;;;5073041;28;20040;-73
2021/01/21 04:08:13;;;;;;;0.63;0.60;;;5.30;66.70;;;;;;5072624;28;20376;-73
2021/01/21 04:10:38;;;;;;;4.05;0.90;;;5.10;67.40;;;;;;5055403;28;20017;-75
2021/01/21 04:13:04;;;;;;;1.33;1.10;;;5.00;68.10;;;;;;5055175;28;20024;-74
2021/01/21 04:15:30;;;;;;;1.80;1.02;;;4.90;69.00;;;;;;5055687;28;20051;-74
2021/01/21 04:17:55;;;;;;;1.77;1.27;;;5.00;70.30;;;;;;5073572;28;20032;-74
2021/01/21 04:20:21;;;;;;;1.05;0.80;;;5.00;69.60;;;;;;5072571;28;20032;-73
2021/01/21 04:22:47;;;;;;;1.58;0.90;;;5.00;69.50;;;;;;5038489;28;20056;-74
2021/01/21 04:25:12;;;;;;;1.05;0.80;;;5.10;69.60;;;;;;5054497;28;20021;-74
2021/01/21 04:27:38;;;;;;;3.65;0.93;;;5.00;69.40;;;;;;5072620;28;20029;-74
2021/01/21 04:30:05;;;;;;;2.05;0.98;;;5.00;68.90;;;;;;5072293;28;20025;-74
2021/01/21 04:32:31;;;;;;;0.90;0.80;;;5.00;69.30;;;;;;5072551;28;20025;-74
2021/01/21 04:34:57;;;;;;;1.08;0.68;;;5.00;69.10;;;;;;5072115;28;20694;-75
2021/01/21 04:37:23;;;;;;;0.90;0.60;;;5.10;68.50;;;;;;5072518;28;20028;-74
2021/01/21 04:39:48;;;;;;;0.80;0.70;;;5.20;68.40;;;;;;5072090;28;20024;-74
2021/01/21 04:42:14;;;;;;;1.20;0.60;;;5.20;68.80;;;;;;5054374;28;20028;-74
2021/01/21 04:44:40;;;;;;;0.73;0.65;;;5.20;68.20;;;;;;5071821;28;20107;-73
2021/01/21 04:47:08;;;;;;;0.70;0.65;;;5.10;68.60;;;;;;5038093;28;20033;-76
2021/01/21 04:49:40;;;;;;;0.93;0.80;;;5.10;68.80;;;;;;5053841;28;20119;-76
2021/01/21 04:52:09;;;;;;;1.92;0.90;;;5.10;69.40;;;;;;5054259;28;20021;-75
2021/01/21 04:54:39;;;;;;;1.20;0.77;;;5.10;68.90;;;;;;5053871;28;20032;-75
2021/01/21 04:57:09;;;;;;;1.30;1.20;;;5.10;69.00;;;;;;5054088;28;20291;-76
2021/01/21 04:59:36;;;;;;;0.50;0.50;;;5.40;67.80;;;;;;5071658;28;20039;-75
2021/01/21 05:02:06;;;;;;;0.60;0.60;;;5.70;66.70;;;;;;5054127;28;20591;-76
2021/01/21 05:04:32;;;;;;;1.85;0.55;;;6.00;65.60;;;;;;5070911;28;20058;-76
2021/01/21 05:06:59;;;;;;;1.98;0.68;;;6.30;64.80;;;;;;5053844;28;20477;-76
2021/01/21 05:09:26;;;;;;;1.42;0.80;;;6.40;64.20;;;;;;5037129;28;20025;-75
2021/01/21 05:11:54;;;;;;;0.70;0.65;;;6.40;64.30;;;;;;5053451;28;20064;-75
2021/01/21 05:14:20;;;;;;;5.53;0.50;;;6.50;64.10;;;;;;5071477;28;20107;-75
2021/01/21 05:16:46;;;;;;;1.38;0.55;;;6.50;64.30;;;;;;5071240;28;20146;-75
2021/01/21 05:19:15;;;;;;;0.65;0.50;;;6.50;64.70;;;;;;5053568;28;20457;-75
2021/01/21 05:21:41;;;;;;;2.90;0.80;;;6.40;64.90;;;;;;5071198;28;20024;-76
2021/01/21 05:24:14;;;;;;;1.40;0.63;;;6.40;65.40;;;;;;5053437;28;20032;-76
2021/01/21 05:26:41;;;;;;;1.35;0.68;;;6.40;65.40;;;;;;5070872;28;20396;-73
2021/01/21 05:29:07;;;;;;;1.73;1.05;;;6.50;64.70;;;;;;5053535;28;20040;-74
2021/01/21 05:31:36;;;;;;;1.67;1.05;;;6.60;64.50;;;;;;5036593;28;20032;-74
2021/01/21 05:34:07;;;;;;;0.80;0.75;;;6.60;64.10;;;;;;5053285;28;20115;-73
2021/01/21 05:36:41;;;;;;;1.37;0.70;;;6.80;63.80;;;;;;5071121;28;20021;-74
2021/01/21 05:39:08;;;;;;;0.52;0.52;;;6.80;63.30;;;;;;5071128;28;20032;-74
2021/01/21 05:41:36;;;;;;;1.08;0.65;;;6.80;63.90;;;;;;5070945;28;20415;-73
2021/01/21 05:44:05;;;;;;;0.50;0.50;;;6.90;63.50;;;;;;5053156;28;20028;-73
2021/01/21 05:46:31;;;;;;;1.30;0.77;;;6.90;63.30;;;;;;5070806;28;20024;-73
2021/01/21 05:48:58;;;;;;;0.57;0.55;;;7.00;63.30;;;;;;5071171;28;20028;-74
2021/01/21 05:51:24;;;;;;;0.60;0.50;;;6.90;63.50;;;;;;5053230;28;20387;-74
2021/01/21 05:53:54;;;;;;;0.55;0.55;;;6.90;63.60;;;;;;5071218;28;20021;-73
2021/01/21 05:56:21;;;;;;;0.50;0.50;;;7.00;63.60;;;;;;5070990;28;20028;-73
2021/01/21 05:58:50;;;;;;;0.75;0.70;;;7.00;63.40;;;;;;5070866;28;20168;-73
2021/01/21 06:01:16;;;;;;;2.70;0.90;;;7.00;63.30;;;;;;5071113;28;20025;-74
2021/01/21 06:03:43;;;;;;;0.55;0.50;;;6.90;63.80;;;;;;5071595;28;20024;-74
2021/01/21 06:06:10;;;;;;;0.80;0.63;;;7.00;63.20;;;;;;5071489;28;20016;-73
2021/01/21 06:08:41;;;;;;;0.57;0.57;;;7.00;63.60;;;;;;5071652;28;20056;-73
2021/01/21 06:11:08;;;;;;;0.70;0.70;;;7.00;63.40;;;;;;5053538;28;20472;-74
2021/01/21 06:13:43;;;;;;;2.83;0.77;;;7.00;63.80;;;;;;5052966;28;20013;-74
2021/01/21 06:16:13;;;;;;;2.38;0.80;;;7.00;64.20;;;;;;5070701;28;20024;-74
2021/01/21 06:18:39;;;;;;;0.70;0.70;;;6.90;65.00;;;;;;5035904;28;20021;-73
2021/01/21 06:21:09;;;;;;;0.90;0.65;;;6.80;65.10;;;;;;5052818;28;20027;-73
2021/01/21 06:23:37;;;;;;;4.75;0.85;;;6.80;65.80;;;;;;5052584;28;20047;-73
2021/01/21 06:26:05;;;;;;;2.58;0.60;;;6.70;66.40;;;;;;5068604;28;20392;-73
2021/01/21 06:28:32;;;;;;;1.50;0.60;;;6.60;67.00;;;;;;5044622;28;20021;-73
2021/01/21 06:30:59;;;;;;;2.67;0.80;;;6.50;67.40;;;;;;5036488;28;20032;-73
2021/01/21 06:33:40;;;;;;;0.70;0.52;;;6.50;68.10;;;;;;5029282;28;20615;-72
2021/01/21 06:36:08;;;;;;;0.50;0.45;;;6.40;68.30;;;;;;5063369;28;20388;-73
2021/01/21 06:38:43;;;;;;;0.55;0.55;;;6.40;68.10;;;;;;5040467;28;20075;-73
2021/01/21 06:41:15;;;;;;;1.50;0.75;;;6.40;68.30;;;;;;5045595;28;20013;-73
2021/01/21 06:43:41;;;;;;;2.58;0.90;;;6.40;68.20;;;;;;5061596;28;20135;-74
2021/01/21 06:46:08;;;;;;;0.63;0.60;;;6.40;69.00;;;;;;5060421;28;20600;-73
2021/01/21 06:48:34;;;;;;;1.00;0.70;;;6.40;68.80;;;;;;5036040;28;20028;-73
2021/01/21 06:51:06;;;;;;;1.23;0.80;;;6.30;68.60;;;;;;5065068;28;20021;-74
2021/01/21 06:53:33;;;;;;;1.00;0.80;;;6.30;68.90;;;;;;5066573;28;20029;-73
2021/01/21 06:56:00;;;;;;;0.60;0.60;;;6.30;68.90;;;;;;5037827;28;20036;-73
2021/01/21 06:58:44;;;;;;;1.83;0.55;;;6.30;69.00;;;;;;5039023;28;20048;-73
2021/01/21 07:01:32;;;;;;;1.02;0.65;;;6.30;70.20;;;;;;5061252;28;20467;-74
2021/01/21 07:04:04;;;;;;;1.58;0.65;;;6.40;68.20;;;;;;5051239;28;20071;-74
2021/01/21 07:06:48;;;;;;;;;;;6.50;67.60;;;;;;5021682;28;20028;-75
2021/01/21 07:09:14;;;;;;;1.63;0.77;;;6.50;68.30;;;;;;5056021;28;19908;-74
2021/01/21 07:11:40;;;;;;;0.85;0.70;;;6.50;67.80;;;;;;5065311;28;20062;-73
2021/01/21 07:14:09;;;;;;;0.95;0.60;;;6.60;66.40;;;;;;5058937;28;20392;-74
2021/01/21 07:16:36;;;;;;;1.48;0.70;;;6.70;66.00;;;;;;5063857;28;20020;-73
2021/01/21 07:19:03;;;;;;;0.77;0.73;;;6.70;67.30;;;;;;5053836;28;20029;-75
2021/01/21 07:21:32;;;;;;;1.08;0.65;;;6.80;66.60;;;;;;5023008;28;20032;-75
2021/01/21 07:24:02;;;;;;;1.45;1.08;;;6.80;65.50;;;;;;5057964;28;20060;-74
2021/01/21 07:26:35;;;;;;;2.10;0.70;;;6.80;65.70;;;;;;5024063;28;20074;-76
2021/01/21 07:29:02;;;;;;;2.83;0.60;;;6.80;65.30;;;;;;5061954;28;20025;-74
2021/01/21 07:31:50;;;;;;;2.28;0.90;;;6.90;66.00;;;;;;5040380;28;20019;-74
2021/01/21 07:34:26;;;;;;;2.65;0.98;;;6.90;66.10;;;;;;5049664;28;20024;-74
2021/01/21 07:37:15;;;;;;;0.95;0.70;;;6.90;67.60;;;;;;5041055;28;20025;-74
2021/01/21 07:39:54;;;;;;;1.05;0.70;;;6.80;66.40;;;;;;5061452;28;20072;-74
2021/01/21 07:42:41;;;;;;;3.00;1.33;;;6.80;66.90;;;;;;5030754;28;20044;-73
2021/01/21 07:45:09;;;;;;;1.42;1.25;;;6.80;67.50;;;;;;5030398;28;20642;-75
2021/01/21 07:47:37;;;;;;;4.05;1.25;;;6.80;67.90;;;;;;5025796;28;20028;-75
2021/01/21 07:50:24;;;;;;;7.10;2.95;;;6.90;67.70;;;;;;5067549;28;20379;-74
2021/01/21 07:52:55;;;;;;;7.13;1.35;;;6.90;66.70;;;;;;5071079;28;20044;-75
2021/01/21 07:55:39;;;;;;;2.42;0.70;;;6.90;67.10;;;;;;5053614;28;20514;-75
2021/01/21 07:58:21;;;;;;;0.70;0.70;;;7.00;64.20;;;;;;5066211;28;20054;-75
2021/01/21 08:00:48;;;;;;;0.70;0.70;;;7.20;62.70;;;;;;5051187;28;20422;-75
2021/01/21 08:03:15;;;;;;;3.15;0.63;;;7.30;62.50;;;;;;5050104;28;20520;-76
2021/01/21 08:05:41;;;;;;;2.67;0.52;;;7.50;61.00;;;;;;5067012;28;20025;-74
2021/01/21 08:08:07;;;;;;;5.97;1.10;;;7.50;62.60;;;;;;5017981;28;20025;-75
2021/01/21 08:10:35;;;;;;;2.72;1.58;;;7.50;62.90;;;;;;5059053;28;20025;-75
2021/01/21 08:13:03;;;;;;;0.52;0.50;;;7.50;61.60;;;;;;5041054;28;20072;-75
2021/01/21 08:15:30;;;;;;;0.60;0.60;;;7.70;60.00;;;;;;5060577;28;20071;-75
2021/01/21 08:17:57;;;;;;;0.77;0.52;;;7.80;59.50;;;;;;5043958;28;20028;-73
2021/01/21 08:20:25;;;;;;;0.93;0.77;;;7.90;58.90;;;;;;5038779;28;20156;-75
2021/01/21 08:22:59;;;;;;;3.60;0.85;;;8.00;58.50;;;;;;5061196;28;20059;-75
2021/01/21 08:25:27;;;;;;;2.92;0.50;;;8.10;58.60;;;;;;5064755;28;20651;-74
2021/01/21 08:27:53;;;;;;;0.80;0.63;;;8.10;58.30;;;;;;5070442;28;20617;-74
2021/01/21 08:30:24;;;;;;;2.95;0.80;;;8.20;58.50;;;;;;5043190;28;20119;-74
2021/01/21 08:32:59;;;;;;;2.63;0.93;;;8.20;58.00;;;;;;5064656;28;20101;-75
2021/01/21 08:35:27;;;;;;;2.83;0.88;;;8.30;57.60;;;;;;5069991;28;20043;-74
2021/01/21 08:37:56;;;;;;;0.90;0.70;;;8.40;56.90;;;;;;5058926;28;20509;-74
2021/01/21 08:40:23;;;;;;;2.72;1.55;;;8.50;56.40;;;;;;5069050;28;20024;-75
2021/01/21 08:42:50;;;;;;;1.65;0.90;;;8.60;56.90;;;;;;5027382;28;20040;-74
2021/01/21 08:45:18;;;;;;;3.47;1.58;;;8.70;56.40;;;;;;5065926;28;20484;-74
2021/01/21 08:47:48;;;;;;;3.10;1.80;;;8.70;56.70;;;;;;5043068;28;20040;-74
2021/01/21 08:50:17;;;;;;;6.00;1.33;;;8.60;56.80;;;;;;5065366;28;20024;-75
2021/01/21 08:53:09;;;;;;;6.30;0.98;;;8.60;57.10;;;;;;5053913;28;20025;-75
2021/01/21 08:55:46;;;;;;;8.27;1.05;;;8.50;57.70;;;;;;5060824;28;20028;-74
2021/01/21 08:58:14;;;;;;;9.15;1.13;;;8.50;57.70;;;;;;5047575;28;20530;-74
2021/01/21 09:01:02;;;;;;;3.05;0.80;;;8.50;57.70;;;;;;5050731;28;20024;-75
2021/01/21 09:03:38;;;;;;;1.63;0.90;;;8.50;57.90;;;;;;5055512;28;20028;-75
2021/01/21 09:06:05;;;;;;;8.18;1.08;;;8.60;58.00;;;;;;5052041;28;20021;-74
2021/01/21 09:08:32;;;;;;;5.93;2.53;;;8.60;57.70;;;;;;5040225;28;20255;-75
2021/01/21 09:10:59;;;;;;;6.15;1.60;;;8.60;58.50;;;;;;5037359;28;20110;-74
2021/01/21 09:13:25;;;;;;;10.40;1.90;;;8.50;58.80;;;;;;5060461;28;20043;-74
2021/01/21 09:15:54;;;;;;;26.20;2.03;;;8.50;58.90;;;;;;5060058;28;20021;-75
2021/01/21 09:18:21;;;;;;;15.25;1.60;;;8.50;59.20;;;;;;5024609;28;20029;-75
2021/01/21 09:20:48;;;;;;;13.82;1.83;;;8.40;61.00;;;;;;5042001;28;20095;-74
2021/01/21 09:23:17;;;;;;;38.45;2.95;;;8.40;61.20;;;;;;5016283;28;20194;-74
2021/01/21 09:25:43;;;;;;;3.95;1.10;;;8.50;61.50;;;;;;5059232;28;20032;-75
2021/01/21 09:28:11;;;;;;;5.97;0.90;;;8.40;61.10;;;;;;5020476;28;20029;-74
2021/01/21 09:30:37;;;;;;;12.40;1.23;;;8.40;61.00;;;;;;5059706;28;20013;-75
2021/01/21 09:33:04;;;;;;;25.70;1.83;;;8.40;60.20;;;;;;5049702;28;20599;-75
2021/01/21 09:35:30;;;;;;;28.45;2.20;;;8.40;60.60;;;;;;5056914;28;20573;-75
2021/01/21 09:37:57;;;;;;;48.15;4.20;;;8.40;61.70;;;;;;5029711;28;20028;-75
2021/01/21 09:40:25;;;;;;;12.60;1.60;;;8.40;63.60;;;;;;5019386;28;20396;-74
2021/01/21 09:42:52;;;;;;;8.98;1.92;;;8.30;61.30;;;;;;5060458;28;20043;-75
2021/01/21 09:45:19;;;;;;;22.23;3.25;;;8.30;61.20;;;;;;5058890;28;20093;-75
2021/01/21 09:47:45;;;;;;;52.55;4.53;;;8.30;60.60;;;;;;5041282;28;20111;-75
2021/01/21 09:50:12;;;;;;;19.38;2.75;;;8.40;61.80;;;;;;5040651;28;20100;-74
2021/01/21 09:52:38;;;;;;;10.73;2.35;;;8.40;61.20;;;;;;5045924;28;20025;-75
2021/01/21 09:55:05;;;;;;;5.05;1.70;;;8.40;60.80;;;;;;5063350;28;20035;-75
2021/01/21 09:57:31;;;;;;;6.15;1.83;;;8.30;60.40;;;;;;5056224;28;20033;-75
2021/01/21 09:59:57;;;;;;;24.73;2.80;;;8.30;60.70;;;;;;5057174;28;20029;-74
2021/01/21 10:02:23;;;;;;;14.07;2.25;;;8.40;61.40;;;;;;5058443;28;20040;-75
2021/01/21 10:04:49;;;;;;;2.05;1.25;;;8.50;60.30;;;;;;5058838;28;20423;-75
2021/01/21 10:07:15;;;;;;;14.93;1.85;;;8.60;59.00;;;;;;5058775;28;20021;-74
2021/01/21 10:09:41;;;;;;;7.03;1.05;;;8.80;59.10;;;;;;5059226;28;20541;-75
2021/01/21 10:12:07;;;;;;;22.63;1.50;;;9.10;58.50;;;;;;5064433;28;20073;-74
2021/01/21 10:14:34;;;;;;;5.63;1.00;;;9.50;57.30;;;;;;5062441;28;20105;-75
2021/01/21 10:17:07;;;;;;;2.03;1.35;;;9.90;56.20;;;;;;5023781;28;20031;-74
2021/01/21 10:19:33;;;;;;;3.03;1.30;;;10.20;55.40;;;;;;5032928;28;20051;-75
2021/01/21 10:21:59;;;;;;;3.63;0.90;;;10.30;54.20;;;;;;5041594;28;20021;-75
2021/01/21 10:24:25;;;;;;;20.23;2.15;;;10.50;53.60;;;;;;5041441;28;20028;-75
2021/01/21 10:26:52;;;;;;;8.07;1.15;;;10.90;54.10;;;;;;5054114;28;20035;-77
2021/01/21 10:29:18;;;;;;;2.35;0.90;;;10.90;53.10;;;;;;5031003;28;20123;-75
2021/01/21 10:31:45;;;;;;;3.53;0.70;;;11.00;52.90;;;;;;5050598;28;20083;-75
2021/01/21 10:34:10;;;;;;;1.70;0.80;;;11.40;52.40;;;;;;5069236;28;20067;-74
2021/01/21 10:36:36;;;;;;;4.70;0.90;;;12.00;50.70;;;;;;5059122;28;20029;-74
2021/01/21 10:39:04;;;;;;;3.30;0.63;;;12.20;49.90;;;;;;5046096;28;20480;-75
2021/01/21 10:41:30;;;;;;;17.00;1.50;;;12.30;49.80;;;;;;5038014;28;20029;-74
2021/01/21 10:43:56;;;;;;;1.50;0.90;;;12.70;49.50;;;;;;5054364;28;20029;-74
2021/01/21 10:46:22;;;;;;;6.78;1.83;;;13.00;48.80;;;;;;5042233;28;20428;-74
2021/01/21 10:48:48;;;;;;;1.58;0.90;;;13.70;47.50;;;;;;5044189;28;20346;-74
2021/01/21 10:51:14;;;;;;;9.40;1.67;;;13.90;46.30;;;;;;5063104;28;20096;-75
2021/01/21 10:53:40;;;;;;;3.97;1.30;;;14.00;46.40;;;;;;5060352;28;20539;-75
2021/01/21 10:56:06;;;;;;;1.48;1.02;;;14.40;45.50;;;;;;5045750;28;20082;-74
2021/01/21 10:58:32;;;;;;;3.25;1.30;;;14.50;44.50;;;;;;5064577;28;20027;-75
2021/01/21 11:00:57;;;;;;;3.42;1.10;;;15.30;43.20;;;;;;5041326;28;20024;-75
2021/01/21 11:03:23;;;;;;;6.38;1.20;;;15.90;42.90;;;;;;5063001;28;20033;-75
2021/01/21 11:05:49;;;;;;;0.68;0.63;;;15.80;42.00;;;;;;5047665;28;20021;-74
2021/01/21 11:08:15;;;;;;;0.65;0.65;;;15.20;42.60;;;;;;5064236;28;20031;-74
2021/01/21 11:10:41;;;;;;;5.97;0.90;;;14.80;43.50;;;;;;5058467;28;20443;-74
2021/01/21 11:13:07;;;;;;;0.73;0.68;;;14.90;44.00;;;;;;5059415;28;20021;-75
2021/01/21 11:15:34;;;;;;;3.28;0.70;;;14.60;43.50;;;;;;5039827;28;20036;-75
2021/01/21 11:18:00;;;;;;;2.90;0.70;;;15.50;43.20;;;;;;5044640;28;20031;-74
2021/01/21 11:20:26;;;;;;;2.55;1.10;;;15.60;42.50;;;;;;5059208;28;20468;-75
2021/01/21 11:22:52;;;;;;;3.67;0.80;;;16.90;42.30;;;;;;5064517;28;20495;-75
2021/01/21 11:25:18;;;;;;;2.58;0.70;;;17.20;39.50;;;;;;5049470;28;20020;-75
2021/01/21 11:27:44;;;;;;;1.65;0.88;;;16.70;39.80;;;;;;5058852;28;20035;-74
2021/01/21 11:30:12;;;;;;;4.10;2.03;;;16.20;40.40;;;;;;5066996;28;20357;-75
2021/01/21 11:32:38;;;;;;;12.38;1.80;;;16.10;41.20;;;;;;5058561;28;20103;-74
2021/01/21 11:35:05;;;;;;;7.10;1.05;;;16.00;40.50;;;;;;5045643;28;20021;-74
2021/01/21 11:37:32;;;;;;;6.50;1.30;;;16.00;40.50;;;;;;5070834;28;20055;-75
2021/01/21 11:39:58;;;;;;;1.13;0.75;;;16.60;39.60;;;;;;5061842;28;20079;-75
2021/01/21 11:42:23;;;;;;;4.63;1.05;;;18.00;39.30;;;;;;5062465;28;20079;-75
2021/01/21 11:44:49;;;;;;;1.88;1.23;;;17.70;38.00;;;;;;5047862;28;20067;-75
2021/01/21 11:47:16;;;;;;;1.60;1.00;;;17.20;38.70;;;;;;5053177;28;20047;-74
2021/01/21 11:49:42;;;;;;;1.75;0.90;;;17.60;38.30;;;;;;5066479;28;20012;-74
2021/01/21 11:52:08;;;;;;;2.92;0.60;;;16.90;38.30;;;;;;5062439;28;20028;-75
2021/01/21 11:54:33;;;;;;;1.73;1.00;;;17.20;39.50;;;;;;5069044;28;20162;-75
2021/01/21 11:56:59;;;;;;;1.25;0.63;;;16.70;39.10;;;;;;5057192;28;20104;-75
2021/01/21 11:59:25;;;;;;;3.80;1.17;;;16.30;39.60;;;;;;5050646;28;20090;-74
2021/01/21 12:01:51;;;;;;;3.13;1.73;;;15.90;40.40;;;;;;5044361;28;20120;-74
2021/01/21 12:04:17;;;;;;;2.35;1.65;;;15.10;41.20;;;;;;5057120;28;20029;-74
2021/01/21 12:06:42;;;;;;;12.10;2.90;;;14.20;42.80;;;;;;5051509;28;20099;-74
2021/01/21 12:09:08;;;;;;;6.93;3.30;;;14.20;43.80;;;;;;5036269;28;20017;-75
2021/01/21 12:11:34;;;;;;;5.45;2.95;;;14.90;43.80;;;;;;5030738;28;20035;-74
2021/01/21 12:14:01;;;;;;;8.25;1.77;;;15.20;43.60;;;;;;5053116;28;20029;-74
2021/01/21 12:16:27;;;;;;;10.88;1.25;;;15.20;43.00;;;;;;5043713;28;20392;-74
2021/01/21 12:18:54;;;;;;;6.97;1.65;;;15.10;42.70;;;;;;5066517;28;20460;-74
2021/01/21 12:21:21;;;;;;;22.27;1.60;;;16.10;42.50;;;;;;5034747;28;20489;-75
2021/01/21 12:23:47;;;;;;;5.72;1.08;;;16.40;43.10;;;;;;5062186;28;20389;-74
2021/01/21 12:26:13;;;;;;;6.65;1.27;;;17.00;41.30;;;;;;5070869;28;20032;-75
2021/01/21 12:28:39;;;;;;;2.05;1.00;;;17.30;40.60;;;;;;5043602;28;20047;-74
2021/01/21 12:31:05;;;;;;;10.35;1.40;;;17.00;40.80;;;;;;5070012;28;20056;-75
2021/01/21 12:33:32;;;;;;;3.92;1.17;;;16.90;41.90;;;;;;5049447;28;20472;-74
2021/01/21 12:35:59;;;;;;;24.30;1.85;;;16.50;43.00;;;;;;5026878;28;20028;-74
2021/01/21 12:38:25;;;;;;;13.63;1.52;;;16.70;42.40;;;;;;5044611;28;20025;-74
2021/01/21 12:40:52;;;;;;;4.47;1.23;;;16.60;41.30;;;;;;5026201;28;20035;-74
2021/01/21 12:43:18;;;;;;;12.63;1.50;;;15.50;42.60;;;;;;5026549;28;20564;-75
2021/01/21 12:45:45;;;;;;;8.27;1.30;;;15.80;42.70;;;;;;5057709;28;20029;-75
2021/01/21 12:48:14;;;;;;;5.95;1.08;;;16.20;43.30;;;;;;5043246;28;20029;-75
2021/01/21 12:50:40;;;;;;;22.20;2.53;;;16.60;41.50;;;;;;5062170;28;20021;-75
2021/01/21 12:53:06;;;;;;;8.57;1.10;;;16.30;40.90;;;;;;5029923;28;20031;-74
2021/01/21 12:55:32;;;;;;;16.75;2.78;;;15.70;42.20;;;;;;5065937;28;20107;-75
2021/01/21 12:57:58;;;;;;;20.17;1.48;;;15.30;44.60;;;;;;5062865;28;20028;-74